sensor_id;sensor_type;location;lat;lon;timestamp;pressure;altitude;pressure_sealevel;temperature;humidity
63405;BME280;49541;57.840;12.306;2022-12-29T00:02:19;98762.19;;;6.74;88.46
63405;BME280;49541;57.840;12.306;2022-12-29T00:07:19;98767.03;;;6.61;88.34
63405;BME280;49541;57.840;12.306;2022-12-29T00:12:20;98759.03;;;6.53;88.65
63405;BME280;49541;57.840;12.306;2022-12-29T00:17:20;98742.16;;;6.72;88.39
63405;BME280;49541;57.840;12.306;2022-12-29T00:22:20;98737.16;;;6.69;88.11
63405;BME280;49541;57.840;12.306;2022-12-29T00:27:39;98724.78;;;6.51;88.53
63405;BME280;49541;57.840;12.306;2022-12-29T00:32:58;98713.75;;;6.74;87.51
63405;BME280;49541;57.840;12.306;2022-12-29T00:38:17;98709.41;;;6.65;87.31
63405;BME280;49541;57.840;12.306;2022-12-29T00:43:36;98700.78;;;6.63;87.46
63405;BME280;49541;57.840;12.306;2022-12-29T00:48:55;98702.31;;;6.91;87.17
63405;BME280;49541;57.840;12.306;2022-12-29T00:54:14;98696.94;;;6.83;87.23
63405;BME280;49541;57.840;12.306;2022-12-29T00:59:15;98691.41;;;6.94;85.94
63405;BME280;49541;57.840;12.306;2022-12-29T01:04:15;98687.25;;;6.92;86.37
63405;BME280;49541;57.840;12.306;2022-12-29T01:09:16;98680.88;;;7.03;86.90
63405;BME280;49541;57.840;12.306;2022-12-29T01:14:35;98675.16;;;7.15;86.52
63405;BME280;49541;57.840;12.306;2022-12-29T01:19:36;98669.31;;;7.04;86.26
63405;BME280;49541;57.840;12.306;2022-12-29T01:24:36;98656.03;;;6.95;87.40
63405;BME280;49541;57.840;12.306;2022-12-29T01:29:36;98642.22;;;7.10;86.57
63405;BME280;49541;57.840;12.306;2022-12-29T01:34:36;98635.22;;;7.01;86.79
63405;BME280;49541;57.840;12.306;2022-12-29T01:39:36;98633.56;;;7.00;87.55
63405;BME280;49541;57.840;12.306;2022-12-29T01:49:46;98603.81;;;6.97;87.86
63405;BME280;49541;57.840;12.306;2022-12-29T01:54:47;98602.78;;;6.98;87.62
63405;BME280;49541;57.840;12.306;2022-12-29T01:59:54;98589.50;;;6.82;88.05
63405;BME280;49541;57.840;12.306;2022-12-29T02:04:56;98579.84;;;6.73;88.28
63405;BME280;49541;57.840;12.306;2022-12-29T02:09:58;98570.97;;;7.25;86.88
63405;BME280;49541;57.840;12.306;2022-12-29T02:14:58;98555.53;;;7.04;87.20
63405;BME280;49541;57.840;12.306;2022-12-29T02:25:23;98544.50;;;7.25;86.69
63405;BME280;49541;57.840;12.306;2022-12-29T02:35:36;98519.72;;;7.26;87.66
63405;BME280;49541;57.840;12.306;2022-12-29T02:40:39;98508.50;;;7.40;87.24
63405;BME280;49541;57.840;12.306;2022-12-29T02:45:59;98493.91;;;7.44;86.62
63405;BME280;49541;57.840;12.306;2022-12-29T02:51:04;98484.00;;;7.38;87.25
63405;BME280;49541;57.840;12.306;2022-12-29T02:56:07;98477.88;;;7.37;87.67
63405;BME280;49541;57.840;12.306;2022-12-29T03:01:15;98472.25;;;7.32;88.13
63405;BME280;49541;57.840;12.306;2022-12-29T03:11:47;98436.16;;;7.15;89.62
63405;BME280;49541;57.840;12.306;2022-12-29T03:22:27;98425.25;;;7.18;90.07
63405;BME280;49541;57.840;12.306;2022-12-29T03:27:43;98410.88;;;7.45;88.30
63405;BME280;49541;57.840;12.306;2022-12-29T03:32:49;98397.28;;;7.48;89.23
63405;BME280;49541;57.840;12.306;2022-12-29T03:38:08;98397.47;;;7.38;89.92
63405;BME280;49541;57.840;12.306;2022-12-29T03:43:11;98386.66;;;7.89;87.61
63405;BME280;49541;57.840;12.306;2022-12-29T03:48:12;98387.97;;;7.93;87.48
63405;BME280;49541;57.840;12.306;2022-12-29T03:53:12;98376.09;;;7.81;88.43
63405;BME280;49541;57.840;12.306;2022-12-29T03:58:12;98366.44;;;7.96;87.54
63405;BME280;49541;57.840;12.306;2022-12-29T04:03:12;98345.47;;;7.70;88.77
63405;BME280;49541;57.840;12.306;2022-12-29T04:08:12;98342.34;;;7.67;88.93
63405;BME280;49541;57.840;12.306;2022-12-29T04:13:12;98334.03;;;7.70;89.99
63405;BME280;49541;57.840;12.306;2022-12-29T04:18:13;98322.97;;;7.66;89.44
63405;BME280;49541;57.840;12.306;2022-12-29T04:23:13;98318.84;;;7.64;90.35
63405;BME280;49541;57.840;12.306;2022-12-29T04:28:14;98318.16;;;7.70;90.14
63405;BME280;49541;57.840;12.306;2022-12-29T04:33:14;98311.91;;;8.02;89.02
63405;BME280;49541;57.840;12.306;2022-12-29T04:38:15;98297.94;;;7.85;89.86
63405;BME280;49541;57.840;12.306;2022-12-29T04:43:15;98290.03;;;7.69;90.45
63405;BME280;49541;57.840;12.306;2022-12-29T04:48:15;98292.44;;;7.87;89.22
63405;BME280;49541;57.840;12.306;2022-12-29T04:53:16;98280.06;;;7.87;89.71
63405;BME280;49541;57.840;12.306;2022-12-29T04:58:17;98274.47;;;7.66;90.27
63405;BME280;49541;57.840;12.306;2022-12-29T05:03:17;98271.31;;;7.70;90.48
63405;BME280;49541;57.840;12.306;2022-12-29T05:08:17;98264.22;;;7.63;91.12
63405;BME280;49541;57.840;12.306;2022-12-29T05:13:18;98268.63;;;7.78;91.08
63405;BME280;49541;57.840;12.306;2022-12-29T05:18:18;98260.09;;;7.60;92.20
63405;BME280;49541;57.840;12.306;2022-12-29T05:23:19;98252.94;;;7.69;92.15
63405;BME280;49541;57.840;12.306;2022-12-29T05:28:19;98246.69;;;7.62;92.45
63405;BME280;49541;57.840;12.306;2022-12-29T05:33:19;98251.88;;;7.47;93.72
63405;BME280;49541;57.840;12.306;2022-12-29T05:38:19;98239.28;;;7.49;93.97
63405;BME280;49541;57.840;12.306;2022-12-29T05:43:19;98235.34;;;7.36;95.11
63405;BME280;49541;57.840;12.306;2022-12-29T05:48:20;98223.06;;;7.44;93.87
63405;BME280;49541;57.840;12.306;2022-12-29T05:53:20;98237.25;;;7.59;93.84
63405;BME280;49541;57.840;12.306;2022-12-29T05:58:20;98230.28;;;7.66;93.92
63405;BME280;49541;57.840;12.306;2022-12-29T06:03:21;98219.81;;;7.81;93.27
63405;BME280;49541;57.840;12.306;2022-12-29T06:08:21;98210.13;;;7.96;92.57
63405;BME280;49541;57.840;12.306;2022-12-29T06:13:21;98208.97;;;7.91;91.72
63405;BME280;49541;57.840;12.306;2022-12-29T06:18:21;98212.50;;;7.83;92.87
63405;BME280;49541;57.840;12.306;2022-12-29T06:23:21;98198.69;;;7.65;93.24
63405;BME280;49541;57.840;12.306;2022-12-29T06:28:22;98191.50;;;7.73;94.22
63405;BME280;49541;57.840;12.306;2022-12-29T06:33:22;98192.00;;;7.77;94.37
63405;BME280;49541;57.840;12.306;2022-12-29T06:38:22;98181.22;;;7.78;94.27
63405;BME280;49541;57.840;12.306;2022-12-29T06:43:22;98180.72;;;7.83;94.80
63405;BME280;49541;57.840;12.306;2022-12-29T06:48:23;98180.25;;;7.79;95.61
63405;BME280;49541;57.840;12.306;2022-12-29T06:53:23;98169.41;;;7.89;96.03
63405;BME280;49541;57.840;12.306;2022-12-29T06:58:23;98161.94;;;7.93;96.13
63405;BME280;49541;57.840;12.306;2022-12-29T07:03:23;98157.38;;;7.78;96.40
63405;BME280;49541;57.840;12.306;2022-12-29T07:08:24;98147.50;;;7.95;96.06
63405;BME280;49541;57.840;12.306;2022-12-29T07:13:24;98144.50;;;8.07;95.64
63405;BME280;49541;57.840;12.306;2022-12-29T07:18:24;98147.00;;;8.00;95.75
63405;BME280;49541;57.840;12.306;2022-12-29T07:23:24;98136.22;;;8.02;95.26
63405;BME280;49541;57.840;12.306;2022-12-29T07:28:24;98137.53;;;8.06;95.08
63405;BME280;49541;57.840;12.306;2022-12-29T07:33:25;98143.59;;;8.14;95.05
63405;BME280;49541;57.840;12.306;2022-12-29T07:38:25;98133.63;;;8.16;94.46
63405;BME280;49541;57.840;12.306;2022-12-29T07:43:25;98127.09;;;8.04;95.22
63405;BME280;49541;57.840;12.306;2022-12-29T07:48:25;98131.16;;;7.92;95.79
63405;BME280;49541;57.840;12.306;2022-12-29T07:53:26;98126.78;;;7.76;95.98
63405;BME280;49541;57.840;12.306;2022-12-29T07:58:26;98119.59;;;7.62;97.33
63405;BME280;49541;57.840;12.306;2022-12-29T08:03:26;98131.00;;;7.62;97.93
63405;BME280;49541;57.840;12.306;2022-12-29T08:08:26;98122.84;;;7.41;98.96
63405;BME280;49541;57.840;12.306;2022-12-29T08:13:26;98127.31;;;7.40;99.12
63405;BME280;49541;57.840;12.306;2022-12-29T08:18:26;98135.31;;;7.55;98.46
63405;BME280;49541;57.840;12.306;2022-12-29T08:23:27;98128.25;;;7.78;97.34
63405;BME280;49541;57.840;12.306;2022-12-29T08:28:27;98133.13;;;7.67;97.13
63405;BME280;49541;57.840;12.306;2022-12-29T08:33:28;98118.22;;;7.66;97.02
63405;BME280;49541;57.840;12.306;2022-12-29T08:38:28;98132.06;;;7.53;98.64
63405;BME280;49541;57.840;12.306;2022-12-29T08:43:29;98132.09;;;7.45;98.54
63405;BME280;49541;57.840;12.306;2022-12-29T08:48:30;98121.88;;;7.65;97.98
63405;BME280;49541;57.840;12.306;2022-12-29T08:53:30;98112.59;;;7.69;97.01
63405;BME280;49541;57.840;12.306;2022-12-29T08:58:30;98112.44;;;7.70;97.96
63405;BME280;49541;57.840;12.306;2022-12-29T09:03:30;98112.50;;;7.85;96.64
63405;BME280;49541;57.840;12.306;2022-12-29T09:08:31;98104.03;;;7.90;96.33
63405;BME280;49541;57.840;12.306;2022-12-29T09:13:31;98106.69;;;7.90;96.68
63405;BME280;49541;57.840;12.306;2022-12-29T09:18:31;98104.34;;;7.87;96.48
63405;BME280;49541;57.840;12.306;2022-12-29T09:23:32;98097.53;;;7.69;97.18
63405;BME280;49541;57.840;12.306;2022-12-29T09:28:32;98101.97;;;7.77;96.60
63405;BME280;49541;57.840;12.306;2022-12-29T09:33:34;98094.19;;;7.75;97.39
63405;BME280;49541;57.840;12.306;2022-12-29T09:38:34;98094.78;;;7.86;96.39
63405;BME280;49541;57.840;12.306;2022-12-29T09:43:42;98091.94;;;7.64;97.10
63405;BME280;49541;57.840;12.306;2022-12-29T09:48:45;98087.94;;;7.68;97.53
63405;BME280;49541;57.840;12.306;2022-12-29T09:53:50;98096.53;;;7.70;97.77
63405;BME280;49541;57.840;12.306;2022-12-29T09:58:59;98082.47;;;7.93;96.44
63405;BME280;49541;57.840;12.306;2022-12-29T10:04:01;98069.59;;;7.90;96.59
63405;BME280;49541;57.840;12.306;2022-12-29T10:09:19;98079.16;;;7.91;96.79
63405;BME280;49541;57.840;12.306;2022-12-29T10:19:28;98099.84;;;7.72;97.66
63405;BME280;49541;57.840;12.306;2022-12-29T10:24:34;98092.09;;;7.63;98.28
63405;BME280;49541;57.840;12.306;2022-12-29T10:29:39;98091.13;;;7.64;98.08
63405;BME280;49541;57.840;12.306;2022-12-29T10:34:47;98093.94;;;7.62;98.37
63405;BME280;49541;57.840;12.306;2022-12-29T10:39:51;98103.22;;;7.58;99.03
63405;BME280;49541;57.840;12.306;2022-12-29T10:44:53;98102.84;;;7.61;98.78
63405;BME280;49541;57.840;12.306;2022-12-29T10:49:54;98118.81;;;7.53;98.68
63405;BME280;49541;57.840;12.306;2022-12-29T10:59:54;98094.47;;;8.27;95.78
63405;BME280;49541;57.840;12.306;2022-12-29T11:04:57;98091.38;;;8.38;95.14
63405;BME280;49541;57.840;12.306;2022-12-29T11:15:21;98084.03;;;8.25;95.25
63405;BME280;49541;57.840;12.306;2022-12-29T11:25:28;98082.84;;;8.28;94.21
63405;BME280;49541;57.840;12.306;2022-12-29T11:30:30;98087.34;;;8.27;94.65
63405;BME280;49541;57.840;12.306;2022-12-29T11:40:30;98072.19;;;8.36;95.52
63405;BME280;49541;57.840;12.306;2022-12-29T11:45:33;98072.53;;;8.41;94.31
63405;BME280;49541;57.840;12.306;2022-12-29T11:50:34;98075.53;;;8.53;94.33
63405;BME280;49541;57.840;12.306;2022-12-29T11:55:35;98067.13;;;8.49;93.24
63405;BME280;49541;57.840;12.306;2022-12-29T12:00:36;98068.63;;;8.29;93.42
63405;BME280;49541;57.840;12.306;2022-12-29T12:05:50;98085.81;;;8.33;93.36
63405;BME280;49541;57.840;12.306;2022-12-29T12:10:58;98081.56;;;8.24;93.65
63405;BME280;49541;57.840;12.306;2022-12-29T12:16:06;98089.00;;;8.05;94.37
63405;BME280;49541;57.840;12.306;2022-12-29T12:21:13;98095.72;;;8.16;94.30
63405;BME280;49541;57.840;12.306;2022-12-29T12:26:21;98092.72;;;7.96;94.92
63405;BME280;49541;57.840;12.306;2022-12-29T12:31:35;98099.59;;;7.82;94.84
63405;BME280;49541;57.840;12.306;2022-12-29T12:36:59;98093.38;;;7.98;94.00
63405;BME280;49541;57.840;12.306;2022-12-29T12:47:28;98093.44;;;7.90;93.21
63405;BME280;49541;57.840;12.306;2022-12-29T12:52:39;98084.50;;;7.83;94.47
63405;BME280;49541;57.840;12.306;2022-12-29T13:23:31;98090.78;;;7.58;95.17
63405;BME280;49541;57.840;12.306;2022-12-29T13:39:10;98099.56;;;7.59;94.94
63405;BME280;49541;57.840;12.306;2022-12-29T13:44:16;98087.28;;;7.35;95.92
63405;BME280;49541;57.840;12.306;2022-12-29T13:49:19;98080.59;;;7.47;95.69
63405;BME280;49541;57.840;12.306;2022-12-29T14:04:35;98102.97;;;7.45;95.86
63405;BME280;49541;57.840;12.306;2022-12-29T14:09:47;98093.16;;;7.53;95.80
63405;BME280;49541;57.840;12.306;2022-12-29T14:14:47;98114.88;;;7.41;96.12
63405;BME280;49541;57.840;12.306;2022-12-29T14:19:51;98110.63;;;7.31;96.63
63405;BME280;49541;57.840;12.306;2022-12-29T14:24:52;98119.59;;;7.22;97.52
63405;BME280;49541;57.840;12.306;2022-12-29T14:29:52;98122.22;;;7.30;96.62
63405;BME280;49541;57.840;12.306;2022-12-29T14:34:56;98110.56;;;7.00;97.12
63405;BME280;49541;57.840;12.306;2022-12-29T14:40:04;98124.81;;;6.99;97.30
63405;BME280;49541;57.840;12.306;2022-12-29T15:00:19;98137.53;;;7.43;94.64
63405;BME280;49541;57.840;12.306;2022-12-29T15:05:43;98143.88;;;7.34;95.16
63405;BME280;49541;57.840;12.306;2022-12-29T15:10:45;98155.03;;;7.13;96.15
63405;BME280;49541;57.840;12.306;2022-12-29T15:15:47;98156.78;;;7.29;96.56
63405;BME280;49541;57.840;12.306;2022-12-29T15:20:49;98160.63;;;7.18;96.38
63405;BME280;49541;57.840;12.306;2022-12-29T15:30:57;98179.41;;;7.39;94.96
63405;BME280;49541;57.840;12.306;2022-12-29T15:36:02;98188.94;;;7.57;93.79
63405;BME280;49541;57.840;12.306;2022-12-29T15:41:07;98193.28;;;7.50;92.96
63405;BME280;49541;57.840;12.306;2022-12-29T15:46:14;98191.16;;;7.37;93.42
63405;BME280;49541;57.840;12.306;2022-12-29T15:51:17;98197.59;;;7.43;92.64
63405;BME280;49541;57.840;12.306;2022-12-29T15:56:18;98204.91;;;7.32;92.62
63405;BME280;49541;57.840;12.306;2022-12-29T16:01:19;98214.03;;;7.22;93.10
63405;BME280;49541;57.840;12.306;2022-12-29T16:07:06;98216.22;;;7.10;93.48
63405;BME280;49541;57.840;12.306;2022-12-29T16:11:47;98218.53;;;6.96;93.61
63405;BME280;49541;57.840;12.306;2022-12-29T16:16:50;98220.50;;;7.03;93.49
63405;BME280;49541;57.840;12.306;2022-12-29T16:21:50;98221.50;;;7.10;94.02
63405;BME280;49541;57.840;12.306;2022-12-29T16:26:58;98215.78;;;7.46;92.18
63405;BME280;49541;57.840;12.306;2022-12-29T16:31:59;98230.72;;;7.38;92.28
63405;BME280;49541;57.840;12.306;2022-12-29T16:37:01;98236.97;;;7.46;91.76
63405;BME280;49541;57.840;12.306;2022-12-29T16:47:21;98249.41;;;7.29;92.36
63405;BME280;49541;57.840;12.306;2022-12-29T16:52:23;98239.69;;;7.21;92.54
63405;BME280;49541;57.840;12.306;2022-12-29T16:57:28;98247.09;;;7.34;92.42
63405;BME280;49541;57.840;12.306;2022-12-29T17:02:30;98258.19;;;7.29;92.38
63405;BME280;49541;57.840;12.306;2022-12-29T17:07:31;98255.72;;;7.28;93.12
63405;BME280;49541;57.840;12.306;2022-12-29T17:12:32;98267.75;;;7.38;91.19
63405;BME280;49541;57.840;12.306;2022-12-29T17:22:33;98260.84;;;7.29;91.28
63405;BME280;49541;57.840;12.306;2022-12-29T17:27:35;98270.94;;;7.26;91.14
63405;BME280;49541;57.840;12.306;2022-12-29T17:32:36;98284.66;;;7.13;90.82
63405;BME280;49541;57.840;12.306;2022-12-29T17:37:37;98275.91;;;7.04;90.91
63405;BME280;49541;57.840;12.306;2022-12-29T17:42:37;98287.31;;;7.13;89.83
63405;BME280;49541;57.840;12.306;2022-12-29T17:47:41;98289.63;;;7.16;89.14
63405;BME280;49541;57.840;12.306;2022-12-29T17:52:41;98291.94;;;7.11;89.63
63405;BME280;49541;57.840;12.306;2022-12-29T17:57:42;98297.59;;;7.00;90.88
63405;BME280;49541;57.840;12.306;2022-12-29T18:02:42;98296.06;;;7.30;89.83
63405;BME280;49541;57.840;12.306;2022-12-29T18:07:42;98323.03;;;7.25;88.33
63405;BME280;49541;57.840;12.306;2022-12-29T18:12:43;98313.44;;;6.91;89.49
63405;BME280;49541;57.840;12.306;2022-12-29T18:17:44;98317.06;;;6.90;90.92
63405;BME280;49541;57.840;12.306;2022-12-29T18:22:44;98310.81;;;6.91;91.22
63405;BME280;49541;57.840;12.306;2022-12-29T18:27:45;98326.66;;;7.16;90.88
63405;BME280;49541;57.840;12.306;2022-12-29T18:32:45;98319.38;;;7.18;90.56
63405;BME280;49541;57.840;12.306;2022-12-29T18:37:45;98337.59;;;7.21;89.71
63405;BME280;49541;57.840;12.306;2022-12-29T18:42:45;98332.63;;;7.26;89.88
63405;BME280;49541;57.840;12.306;2022-12-29T18:47:46;98341.22;;;7.12;89.37
63405;BME280;49541;57.840;12.306;2022-12-29T18:52:46;98340.91;;;7.07;89.59
63405;BME280;49541;57.840;12.306;2022-12-29T18:57:46;98337.59;;;7.13;88.77
63405;BME280;49541;57.840;12.306;2022-12-29T19:02:47;98348.53;;;7.10;88.69
63405;BME280;49541;57.840;12.306;2022-12-29T19:07:47;98350.66;;;7.06;89.32
63405;BME280;49541;57.840;12.306;2022-12-29T19:12:48;98349.16;;;6.95;89.57
63405;BME280;49541;57.840;12.306;2022-12-29T19:17:48;98339.41;;;6.96;90.24
63405;BME280;49541;57.840;12.306;2022-12-29T19:22:48;98342.56;;;7.00;90.44
63405;BME280;49541;57.840;12.306;2022-12-29T19:27:49;98357.75;;;7.14;89.90
63405;BME280;49541;57.840;12.306;2022-12-29T19:32:50;98346.84;;;7.01;89.99
63405;BME280;49541;57.840;12.306;2022-12-29T19:37:54;98364.03;;;6.96;90.34
63405;BME280;49541;57.840;12.306;2022-12-29T19:42:55;98370.31;;;6.87;89.86
63405;BME280;49541;57.840;12.306;2022-12-29T19:47:55;98376.88;;;6.75;90.11
63405;BME280;49541;57.840;12.306;2022-12-29T19:52:55;98377.53;;;6.69;89.88
63405;BME280;49541;57.840;12.306;2022-12-29T19:57:56;98382.81;;;6.69;89.72
63405;BME280;49541;57.840;12.306;2022-12-29T20:02:56;98388.44;;;6.66;90.08
63405;BME280;49541;57.840;12.306;2022-12-29T20:07:56;98401.97;;;6.54;91.27
63405;BME280;49541;57.840;12.306;2022-12-29T20:12:56;98394.47;;;6.42;91.38
63405;BME280;49541;57.840;12.306;2022-12-29T20:17:56;98395.47;;;6.41;91.06
63405;BME280;49541;57.840;12.306;2022-12-29T20:22:57;98408.53;;;6.42;90.67
63405;BME280;49541;57.840;12.306;2022-12-29T20:27:57;98424.72;;;6.39;90.04
63405;BME280;49541;57.840;12.306;2022-12-29T20:32:57;98416.41;;;6.34;90.52
63405;BME280;49541;57.840;12.306;2022-12-29T20:37:57;98417.75;;;6.38;90.56
63405;BME280;49541;57.840;12.306;2022-12-29T20:42:57;98442.72;;;6.44;90.38
63405;BME280;49541;57.840;12.306;2022-12-29T20:47:57;98435.25;;;6.31;93.25
63405;BME280;49541;57.840;12.306;2022-12-29T20:52:58;98431.34;;;6.43;92.22
63405;BME280;49541;57.840;12.306;2022-12-29T20:57:58;98444.13;;;6.22;92.34
63405;BME280;49541;57.840;12.306;2022-12-29T21:02:58;98428.47;;;6.36;91.48
63405;BME280;49541;57.840;12.306;2022-12-29T21:07:58;98446.16;;;6.36;91.05
63405;BME280;49541;57.840;12.306;2022-12-29T21:12:59;98447.41;;;6.24;91.14
63405;BME280;49541;57.840;12.306;2022-12-29T21:18:00;98461.28;;;6.26;90.27
63405;BME280;49541;57.840;12.306;2022-12-29T21:23:01;98459.06;;;6.13;89.79
63405;BME280;49541;57.840;12.306;2022-12-29T21:28:05;98471.63;;;6.11;88.59
63405;BME280;49541;57.840;12.306;2022-12-29T21:33:05;98475.44;;;6.17;88.15
63405;BME280;49541;57.840;12.306;2022-12-29T21:38:06;98478.16;;;6.25;87.77
63405;BME280;49541;57.840;12.306;2022-12-29T21:43:06;98482.28;;;6.27;86.74
63405;BME280;49541;57.840;12.306;2022-12-29T21:48:07;98490.22;;;6.27;86.89
63405;BME280;49541;57.840;12.306;2022-12-29T21:53:22;98498.50;;;6.32;86.72
63405;BME280;49541;57.840;12.306;2022-12-29T21:58:23;98513.22;;;6.35;87.16
63405;BME280;49541;57.840;12.306;2022-12-29T22:03:41;98506.78;;;6.38;87.08
63405;BME280;49541;57.840;12.306;2022-12-29T22:09:00;98507.63;;;6.38;87.30
63405;BME280;49541;57.840;12.306;2022-12-29T22:14:19;98512.16;;;6.28;87.57
63405;BME280;49541;57.840;12.306;2022-12-29T22:19:19;98514.91;;;6.44;86.49
63405;BME280;49541;57.840;12.306;2022-12-29T22:24:20;98528.13;;;6.44;86.88
63405;BME280;49541;57.840;12.306;2022-12-29T22:29:20;98533.53;;;6.34;87.54
63405;BME280;49541;57.840;12.306;2022-12-29T22:34:20;98535.06;;;6.45;87.20
63405;BME280;49541;57.840;12.306;2022-12-29T22:39:20;98540.69;;;6.42;87.36
63405;BME280;49541;57.840;12.306;2022-12-29T22:44:20;98541.97;;;6.38;87.46
63405;BME280;49541;57.840;12.306;2022-12-29T22:49:21;98538.16;;;6.59;86.68
63405;BME280;49541;57.840;12.306;2022-12-29T22:54:21;98551.31;;;6.50;86.99
63405;BME280;49541;57.840;12.306;2022-12-29T22:59:21;98541.72;;;6.49;86.36
63405;BME280;49541;57.840;12.306;2022-12-29T23:04:21;98548.19;;;6.55;86.61
63405;BME280;49541;57.840;12.306;2022-12-29T23:09:22;98550.50;;;6.58;86.34
63405;BME280;49541;57.840;12.306;2022-12-29T23:14:22;98564.13;;;6.37;87.09
63405;BME280;49541;57.840;12.306;2022-12-29T23:19:22;98569.91;;;6.41;87.37
63405;BME280;49541;57.840;12.306;2022-12-29T23:24:22;98563.97;;;6.65;87.20
63405;BME280;49541;57.840;12.306;2022-12-29T23:29:23;98571.03;;;6.64;86.73
63405;BME280;49541;57.840;12.306;2022-12-29T23:34:23;98578.56;;;6.51;86.60
63405;BME280;49541;57.840;12.306;2022-12-29T23:39:23;98579.44;;;6.60;86.34
63405;BME280;49541;57.840;12.306;2022-12-29T23:44:23;98584.13;;;6.66;86.07
63405;BME280;49541;57.840;12.306;2022-12-29T23:49:24;98573.81;;;6.54;85.14
63405;BME280;49541;57.840;12.306;2022-12-29T23:54:24;98580.81;;;6.38;85.60
63405;BME280;49541;57.840;12.306;2022-12-29T23:59:24;98573.22;;;6.43;85.85
